Latest Weather Observations for McCluer Island

IDD60801

Issued at 4:01 am CST Friday 28 April 2017 (issued every 30 minutes, with the page automatically refreshed every 10 minutes)

About weather observations | Map of weather stations | Latest weather observations for NT | Other Formats
Station Details ID: 014274 Name: MCCLUER ISLAND Lat: -11.05 Lon: 132.98 Height: 1.4 m
Data from the previous 72 hours. | See also: Recent months at McCluer Island
Date/Time
CST
Temp
°C
App
Temp
°C
Dew
Point
°C
Rel
Hum
%
Delta-T
°C
Wind Press
QNH
hPa
Press
MSL
hPa
Rain since
9am
mm
Dir  Spd
km/h
Gust
km/h
Spd
kts
Gust
kts
28/04:00am 27.4 25.2 23.6 80 2.6 ESE 41 48 22 26 1010.5 - 28.4
28/03:30am 27.2 24.9 23.4 80 2.6 ESE 41 48 22 26 1010.4 - 28.4
28/03:00am 27.0 24.8 23.5 81 2.4 ESE 41 48 22 26 1010.1 1010.1 28.4
28/02:30am 27.0 24.9 23.7 82 2.3 ESE 41 48 22 26 1010.7 - 28.4
28/02:00am 27.1 24.0 23.6 81 2.4 E 46 54 25 29 1010.7 - 28.4
28/01:30am 27.1 24.9 23.6 81 2.4 ESE 41 48 22 26 1010.5 - 28.4
28/01:00am 27.1 24.5 23.8 82 2.3 ESE 44 54 24 29 1010.5 - 28.4
28/12:30am 27.1 24.4 23.6 81 2.4 ESE 44 54 24 29 1010.7 - 28.4
28/12:00am 27.2 24.3 23.9 82 2.3 ESE 46 56 25 30 1010.7 1010.7 28.4
 
Date/Time
CST
Temp
°C
App
Temp
°C
Dew
Point
°C
Rel
Hum
%
Delta-T
°C
Wind Press
QNH
hPa
Press
MSL
hPa
Rain since
9am
mm
Dir  Spd
km/h
Gust
km/h
Spd
kts
Gust
kts
27/11:30pm 27.2 24.5 24.3 84 2.0 ESE 46 57 25 31 1011.0 - 28.4
27/11:00pm 27.0 24.5 24.6 87 1.7 ESE 46 57 25 31 1011.1 - 28.4
27/10:30pm 27.2 26.4 25.2 89 1.4 ESE 39 48 21 26 1011.9 - 28.4
27/10:00pm 27.2 26.0 24.6 86 1.8 E 39 44 21 24 1012.2 - 28.4
27/09:30pm 26.6 26.0 24.3 87 1.6 ESE 35 44 19 24 1012.2 - 28.2
27/09:00pm 26.6 24.8 24.3 87 1.6 E 41 50 22 27 1011.8 1011.8 27.4
27/08:30pm 26.7 25.6 24.7 89 1.4 E 39 46 21 25 1011.7 - 25.4
27/08:00pm 26.2 24.5 24.4 90 1.2 ESE 41 50 22 27 1011.1 - 23.4
27/07:30pm 26.2 24.4 24.2 89 1.4 ESE 41 46 22 25 1011.7 - 22.6
27/07:00pm 25.7 21.6 23.9 90 1.2 ESE 52 63 28 34 1010.9 - 22.0
27/06:30pm 25.5 19.8 24.1 92 1.0 ESE 61 70 33 38 1010.4 - 21.8
27/06:00pm 26.2 21.9 24.2 89 1.4 E 54 69 29 37 1010.0 1010.0 21.6
27/05:30pm 27.0 24.2 24.8 88 1.5 E 48 57 26 31 1009.5 - 21.6
27/05:00pm 27.9 27.1 25.9 89 1.4 E 41 52 22 28 1009.3 - 21.6
27/04:30pm 27.8 26.3 25.4 87 1.7 E 43 48 23 26 1008.9 - 21.6
27/04:00pm 27.2 28.2 26.0 93 0.8 E 32 41 17 22 1008.5 - 21.6
27/03:30pm 26.0 23.9 24.6 92 1.0 ESE 44 56 24 30 1008.2 - 21.2
27/03:26pm 27.4 27.0 25.2 88 1.5 ESE 37 56 20 30 1008.2 - 19.6
27/03:00pm 28.6 29.1 25.2 82 2.4 E 32 35 17 19 1008.6 1008.6 19.4
27/02:30pm 28.2 28.5 24.8 82 2.4 E 32 37 17 20 1008.8 - 19.4
27/02:00pm 28.5 28.5 24.7 80 2.7 E 33 39 18 21 1009.0 - 19.4
27/01:30pm 28.7 28.3 25.3 82 2.4 E 37 43 20 23 1009.4 - 19.4
27/01:00pm 28.3 29.1 25.9 87 1.7 E 33 39 18 21 1010.0 - 19.4
27/12:30pm 27.8 28.8 26.0 90 1.3 ESE 32 37 17 20 1010.5 - 19.4
27/12:00pm 27.5 27.1 25.9 91 1.1 ESE 39 44 21 24 1010.6 1010.6 19.4
27/11:30am 27.7 27.1 25.5 88 1.5 E 39 50 21 27 1011.2 - 19.4
27/11:00am 28.2 25.8 25.4 85 2.0 ENE 48 56 26 30 1011.4 - 19.4
27/10:30am 28.2 26.3 25.0 83 2.2 ENE 44 52 24 28 1011.1 - 19.4
27/10:00am 27.5 26.6 25.7 90 1.3 E 41 50 22 27 1010.9 - 19.4
27/09:30am 26.1 23.9 25.8 98 0.2 E 48 56 26 30 1010.9 - 19.4
27/09:25am 25.7 23.7 25.4 98 0.2 E 46 78 25 42 1011.0 - 19.2
27/09:10am 25.5 21.5 24.6 95 0.6 NE 54 83 29 45 1011.1 - 8.2
27/09:05am 26.0 21.6 24.0 89 1.4 NE 54 65 29 35 1011.2 - 1.6
27/09:00am 27.7 26.2 25.7 89 1.4 E 44 56 24 30 1010.5 1010.5 27.0
27/08:30am 28.1 26.4 25.3 85 2.0 E 44 54 24 29 1010.2 - 26.2
27/08:00am 27.1 24.8 24.9 88 1.5 E 46 56 25 30 1009.9 - 26.2
27/07:30am 27.0 26.2 25.8 93 0.8 E 41 52 22 28 1009.4 - 26.2
27/07:05am 26.2 24.2 24.8 92 1.0 E 44 63 24 34 1008.7 - 25.2
27/07:00am 26.7 25.2 25.3 92 1.0 E 43 54 23 29 1008.7 - 25.0
27/06:30am 26.9 25.4 25.3 91 1.1 E 43 52 23 28 1008.5 - 24.8
27/06:00am 26.7 25.6 25.3 92 1.0 E 41 48 22 26 1008.3 1008.3 24.8
27/05:30am 27.0 25.9 25.4 91 1.1 E 41 52 22 28 1008.2 - 24.6
27/05:00am 27.3 24.5 24.7 86 1.8 E 48 57 26 31 1007.9 - 24.4
27/04:30am 27.2 23.9 24.6 86 1.8 E 50 59 27 32 1008.1 - 24.2
27/04:00am 27.3 24.2 24.9 87 1.7 E 50 56 27 30 1008.0 - 23.6
27/03:30am 27.3 24.7 25.1 88 1.5 E 48 56 26 30 1007.8 - 23.6
27/03:00am 27.2 25.3 25.0 88 1.5 E 44 54 24 29 1008.0 1008.0 23.4
27/02:30am 27.2 24.9 25.0 88 1.5 E 46 56 25 30 1007.7 - 23.4
27/02:00am 26.8 24.4 24.8 89 1.4 ESE 46 54 25 29 1007.6 - 23.4
27/01:30am 26.5 24.4 24.7 90 1.2 ESE 44 52 24 28 1008.2 - 23.4
27/01:00am 26.2 22.7 24.2 89 1.4 ESE 50 57 27 31 1008.8 - 23.4
27/12:30am 26.2 21.7 23.9 87 1.6 ESE 54 63 29 34 1008.7 - 23.4
27/12:00am 25.8 21.2 23.7 88 1.4 ESE 54 61 29 33 1009.1 1009.1 23.4
 
Date/Time
CST
Temp
°C
App
Temp
°C
Dew
Point
°C
Rel
Hum
%
Delta-T
°C
Wind Press
QNH
hPa
Press
MSL
hPa
Rain since
9am
mm
Dir  Spd
km/h
Gust
km/h
Spd
kts
Gust
kts
26/11:30pm 25.2 21.7 22.9 87 1.6 SE 46 59 25 32 1008.9 - 23.4
26/11:00pm 25.3 21.7 23.5 90 1.2 ESE 48 65 26 35 1009.5 - 23.4
26/10:30pm 25.1 22.3 23.5 91 1.1 SE 44 61 24 33 1009.6 - 23.2
26/10:02pm 25.2 22.5 23.6 91 1.1 ESE 44 63 24 34 1010.0 - 22.8
26/10:00pm 25.4 23.0 23.8 91 1.1 SE 43 56 23 30 1010.1 - 22.6
26/09:37pm 25.7 21.7 22.8 84 2.0 SE 48 67 26 36 1010.3 - 22.0
26/09:30pm 25.5 20.9 22.4 83 2.1 SE 50 67 27 36 1010.2 - 22.0
26/09:00pm 25.8 21.2 23.7 88 1.4 ESE 54 74 29 40 1009.8 1009.8 22.0
26/08:33pm 25.0 20.5 23.8 93 0.8 SE 54 72 29 39 1009.3 - 22.0
26/08:30pm 25.0 19.9 23.8 93 0.8 SE 57 72 31 39 1009.3 - 22.0
26/08:28pm 25.1 20.2 24.1 94 0.7 SE 57 76 31 41 1009.4 - 22.0
26/08:19pm 25.3 18.5 23.4 89 1.3 SE 65 76 35 41 1009.2 - 21.8
26/08:00pm 25.9 25.0 24.5 92 1.0 SE 37 56 20 30 1009.3 - 21.6
26/07:56pm 26.0 25.6 24.6 92 1.0 SE 35 56 19 30 1009.3 - 21.6
26/07:30pm 26.0 26.1 24.8 93 0.8 SE 33 48 18 26 1009.0 - 21.4
26/07:00pm 26.6 25.1 24.8 90 1.3 SE 41 54 22 29 1008.4 - 21.2
26/06:30pm 26.9 26.0 24.5 87 1.7 ESE 37 44 20 24 1008.4 - 21.0
26/06:00pm 26.9 26.5 24.7 88 1.5 ESE 35 44 19 24 1008.2 1008.2 20.6
26/05:30pm 27.1 27.0 24.6 86 1.7 ESE 33 43 18 23 1008.1 - 20.6
26/05:00pm 27.1 28.6 25.5 91 1.1 SE 28 41 15 22 1007.5 - 20.6
26/04:30pm 27.1 27.7 25.3 90 1.3 ESE 32 39 17 21 1007.3 - 20.6
26/04:00pm 27.3 27.6 24.9 87 1.7 ESE 32 37 17 20 1007.2 - 20.6
26/03:30pm 26.6 27.9 25.2 92 1.0 E 28 32 15 17 1007.5 - 20.6
26/03:00pm 27.9 28.8 25.3 86 1.8 E 30 39 16 21 1007.7 1007.7 20.4
26/02:30pm 27.8 27.2 25.0 85 2.0 E 37 44 20 24 1007.8 - 20.4
26/02:00pm 27.5 26.6 24.5 84 2.1 E 37 43 20 23 1008.2 - 20.4
26/01:30pm 27.0 28.1 25.6 92 1.0 E 30 35 16 19 1008.5 - 20.4
26/01:00pm 26.3 26.3 25.3 94 0.7 ESE 35 41 19 22 1008.7 - 20.4
26/12:30pm 26.1 26.5 25.4 96 0.5 ESE 33 39 18 21 1009.3 - 20.2
26/12:00pm 25.7 26.2 25.5 99 0.1 ESE 33 41 18 22 1009.9 1009.9 19.6
26/11:30am 25.1 23.5 24.6 97 0.3 E 41 65 22 35 1010.1 - 15.0
26/11:24am 25.1 22.4 24.4 96 0.5 E 46 65 25 35 1010.5 - 12.6
26/11:21am 25.6 22.8 24.7 95 0.6 E 48 65 26 35 1010.4 - 7.8
26/11:20am 26.4 28.0 25.7 96 0.5 SE 28 52 15 28 1010.5 - 6.6
26/11:00am 26.0 26.8 25.1 95 0.6 SE 30 43 16 23 1010.2 - 4.8
26/10:30am 26.7 27.5 25.7 94 0.7 SE 32 41 17 22 1010.5 - 2.6
26/10:10am 26.2 25.8 25.2 94 0.7 SE 37 56 20 30 1010.4 - 2.6
26/10:04am 26.2 23.9 25.0 93 0.8 ESE 46 56 25 30 1010.4 - 2.2
26/10:00am 26.3 28.6 25.1 93 0.8 SE 22 33 12 18 1010.5 - 2.0
26/09:56am 26.1 26.3 24.7 92 1.0 ESE 32 52 17 28 1010.7 - 1.8
26/09:30am 27.6 26.4 24.6 84 2.1 ESE 39 46 21 25 1010.3 - 0.0
26/09:00am 27.8 26.2 25.2 86 1.8 ESE 43 52 23 28 1009.9 1009.9 2.4
26/08:30am 27.2 25.2 24.6 86 1.8 ESE 43 50 23 27 1009.7 - 2.4
26/08:00am 27.3 25.8 25.7 91 1.1 ESE 44 54 24 29 1009.1 - 2.4
26/07:30am 26.5 24.7 25.1 92 1.0 ESE 44 52 24 28 1008.7 - 2.4
26/07:00am 26.3 25.2 25.4 95 0.6 ESE 41 59 22 32 1008.4 - 2.4
26/06:51am 26.0 23.3 25.0 94 0.7 ESE 48 59 26 32 1008.3 - 2.4
26/06:30am 26.1 28.5 25.2 95 0.6 SE 22 33 12 18 1008.2 - 1.8
26/06:00am 26.3 27.8 24.9 92 1.0 SE 26 41 14 22 1008.0 1008.0 1.6
26/05:30am 26.0 27.7 24.6 92 1.0 SE 24 33 13 18 1008.1 - 1.6
26/05:00am 26.2 26.8 24.1 88 1.4 SE 28 35 15 19 1008.2 - 1.6
26/04:30am 27.1 27.9 23.8 82 2.3 SE 26 37 14 20 1008.1 - 1.4
26/04:00am 27.3 28.4 23.7 81 2.5 SE 24 33 13 18 1008.0 - 1.4
26/03:30am 27.3 27.9 23.5 80 2.6 SE 26 35 14 19 1008.0 - 1.4
26/03:00am 27.1 28.3 23.8 82 2.3 SE 24 33 13 18 1008.1 1008.1 1.4
26/02:30am 27.2 28.5 23.4 80 2.6 SE 22 30 12 16 1008.5 - 1.4
26/02:00am 27.3 28.3 23.5 80 2.6 SE 24 33 13 18 1008.5 - 1.4
26/01:30am 27.5 28.6 23.7 80 2.6 SE 24 32 13 17 1009.0 - 1.4
26/01:00am 27.5 28.2 23.7 80 2.6 SE 26 35 14 19 1009.4 - 1.4
26/12:30am 27.6 28.3 23.6 79 2.7 SE 26 33 14 18 1009.7 - 1.4
26/12:00am 27.6 28.4 23.8 80 2.6 SE 26 33 14 18 1009.7 1009.7 1.4
 
Date/Time
CST
Temp
°C
App
Temp
°C
Dew
Point
°C
Rel
Hum
%
Delta-T
°C
Wind Press
QNH
hPa
Press
MSL
hPa
Rain since
9am
mm
Dir  Spd
km/h
Gust
km/h
Spd
kts
Gust
kts
25/11:30pm 27.5 28.2 23.7 80 2.6 SE 26 35 14 19 1009.8 - 1.4
25/11:00pm 27.6 27.5 23.6 79 2.7 SE 30 39 16 21 1009.9 - 1.4
25/10:30pm 27.8 27.9 24.0 80 2.6 SE 30 35 16 19 1010.0 - 1.4
25/10:00pm 27.6 26.2 23.6 79 2.7 ESE 37 46 20 25 1010.0 - 1.4
25/09:30pm 27.8 26.6 24.0 80 2.6 ESE 37 46 20 25 1009.9 - 1.4
25/09:00pm 27.7 26.1 23.9 80 2.6 ESE 39 52 21 28 1009.9 1009.9 1.4
25/08:30pm 27.2 27.1 24.6 86 1.8 ESE 33 43 18 23 1009.4 - 1.4
25/08:00pm 28.0 27.0 25.0 84 2.1 ESE 39 44 21 24 1009.0 - 1.4
25/07:30pm 28.1 27.6 25.1 84 2.1 ESE 37 43 20 23 1009.0 - 1.4
25/07:00pm 27.8 27.5 24.2 81 2.5 SE 33 43 18 23 1008.8 - 1.4
25/06:30pm 28.2 26.9 25.0 83 2.2 ESE 41 46 22 25 1008.6 - 1.4
25/06:00pm 27.6 27.3 25.4 88 1.5 ESE 37 46 20 25 1008.7 1008.7 1.4
25/05:30pm 28.1 27.1 24.9 83 2.2 ESE 39 52 21 28 1008.5 - 1.4
25/05:00pm 28.2 27.0 24.6 81 2.5 ESE 39 50 21 27 1008.2 - 1.4
25/04:30pm 28.4 28.0 25.2 83 2.2 ESE 37 44 20 24 1008.1 - 1.4
25/04:00pm 28.3 27.8 25.1 83 2.2 ESE 37 43 20 23 1008.1 - 1.4
25/03:30pm 28.4 27.1 25.0 82 2.4 ESE 41 46 22 25 1008.1 - 1.4
25/03:00pm 28.5 28.1 25.3 83 2.3 ESE 37 43 20 23 1008.1 1008.1 1.4
25/02:42pm 27.6 26.7 24.4 83 2.2 E 37 43 20 23 1008.1 - 1.4
25/02:30pm 27.5 28.0 25.5 89 1.4 SE 33 50 18 27 1008.2 - 1.4
25/02:25pm 27.3 27.0 24.9 87 1.7 SE 35 50 19 27 1008.2 - 1.4
25/02:10pm 27.8 26.8 25.0 85 2.0 ESE 39 63 21 34 1008.2 - 0.6
25/02:00pm 28.3 28.7 25.3 84 2.1 ESE 33 41 18 22 1008.6 - 0.6
25/01:30pm 27.7 26.8 25.1 86 1.8 ESE 39 48 21 26 1009.2 - 0.6
25/01:00pm 26.6 24.7 24.1 86 1.7 ESE 41 54 22 29 1009.4 - 0.4
25/12:30pm 28.3 28.8 25.5 85 2.0 ESE 33 41 18 22 1009.4 - 0.0
25/12:00pm 27.8 28.1 25.2 86 1.8 E 33 39 18 21 1010.0 1010.0 0.0
25/11:30am 27.6 27.3 25.4 88 1.5 E 37 41 20 22 1010.5 - 0.0
25/11:00am 28.4 28.2 25.0 82 2.4 ESE 35 41 19 22 1010.9 - 0.0
25/10:30am 28.2 28.8 24.8 82 2.4 ESE 30 35 16 19 1011.1 - 0.0
25/10:00am 28.0 28.5 24.0 79 2.8 ESE 28 35 15 19 1011.3 - 0.0
25/09:30am 28.4 29.4 24.2 78 2.9 ESE 26 35 14 19 1011.3 - 0.0
25/09:00am 27.9 28.0 23.9 79 2.8 ESE 30 39 16 21 1011.3 1011.3 5.6
25/08:30am 27.0 28.5 23.0 79 2.7 SE 20 30 11 16 1010.9 - 5.6
25/08:00am 27.2 27.3 23.2 79 2.7 ESE 28 33 15 18 1010.8 - 5.6
25/07:30am 26.7 28.4 24.7 89 1.4 ESE 24 30 13 16 1010.7 - 5.6
25/07:00am 26.3 28.0 24.0 87 1.6 SE 22 28 12 15 1010.3 - 5.0
25/06:30am 26.9 28.9 24.0 84 2.0 SE 20 28 11 15 1009.8 - 4.8
25/06:00am 26.7 29.4 24.2 86 1.7 SE 17 24 9 13 1009.4 1009.4 4.8
25/05:30am 27.0 29.7 24.1 84 2.0 SSE 17 24 9 13 1009.1 - 4.8
25/05:00am 27.0 29.3 24.1 84 2.0 SE 19 24 10 13 1009.0 - 4.8
25/04:30am 26.9 29.3 24.2 85 1.9 SSE 19 24 10 13 1009.0 - 4.8

Other Formats:

Comma delimited format used in spreadsheet applications
http://www.bom.gov.au/fwo/IDD60801/IDD60801.94135.axf

JavaScript Object Notation format (JSON) in row-major order
http://www.bom.gov.au/fwo/IDD60801/IDD60801.94135.json